Time;durP1;ratioP1;P1;durP2;ratioP2;P2;SDS_P1;SDS_P2;PMS_P1;PMS_P2;Temp;Humidity;BMP_temperature;BMP_pressure;BME280_temperature;BME280_humidity;BME280_pressure;Samples;Min_cycle;Max_cycle;Signal;HPM_P1;HPM_P2
2022/08/26 00:01:47;;;;;;;39.45;35.65;;;20.60;99.90;;;;;;4991908;28;20077;-28
2022/08/26 00:04:13;;;;;;;35.50;32.30;;;20.60;99.90;;;;;;4994017;28;20124;-29
2022/08/26 00:06:40;;;;;;;37.72;34.33;;;20.50;99.90;;;;;;4977392;28;20038;-29
2022/08/26 00:09:05;;;;;;;37.88;34.47;;;20.50;99.90;;;;;;4977718;28;20066;-28
2022/08/26 00:11:32;;;;;;;42.05;38.08;;;20.50;99.90;;;;;;4993400;28;20129;-30
2022/08/26 00:14:21;;;;;;;38.75;34.90;;;20.40;99.90;;;;;;4990036;28;20038;-30
2022/08/26 00:16:47;;;;;;;44.20;39.83;;;20.40;99.90;;;;;;4972883;28;20042;-29
2022/08/26 00:19:12;;;;;;;44.25;40.13;;;20.40;99.90;;;;;;4975695;28;20468;-30
2022/08/26 00:21:39;;;;;;;42.10;38.38;;;20.40;99.90;;;;;;4979588;28;20042;-29
2022/08/26 00:24:04;;;;;;;45.75;41.30;;;20.40;99.90;;;;;;4977642;28;20120;-30
2022/08/26 00:27:34;;;;;;;46.05;41.83;;;20.40;99.90;;;;;;4992917;28;20522;-31
2022/08/26 00:31:36;;;;;;;46.60;42.20;;;20.40;99.90;;;;;;4833283;29;20061;-28
2022/08/26 00:34:46;;;;;;;48.35;43.45;;;20.30;99.90;;;;;;4796287;29;20135;-29
2022/08/26 00:37:53;;;;;;;48.03;43.53;;;20.30;99.90;;;;;;4801031;29;20046;-29
2022/08/26 00:43:59;;;;;;;47.88;43.35;;;20.20;99.90;;;;;;4852474;29;20479;-30
2022/08/26 00:46:57;;;;;;;51.25;46.25;;;20.10;99.90;;;;;;4880255;29;20052;-29
2022/08/26 00:49:44;;;;;;;53.42;48.20;;;20.10;99.90;;;;;;4844539;29;20049;-31
2022/08/26 00:52:18;;;;;;;51.80;46.92;;;20.10;99.90;;;;;;4931240;28;20054;-28
2022/08/26 00:55:35;;;;;;;53.55;48.55;;;20.10;99.90;;;;;;4990208;28;20041;-31
2022/08/26 00:58:02;;;;;;;55.83;50.45;;;20.00;99.90;;;;;;4953392;28;20067;-25
2022/08/26 01:08:51;;;;;;;59.23;53.40;;;19.90;99.90;;;;;;4873346;29;20056;-25
2022/08/26 01:11:36;;;;;;;60.08;54.05;;;19.90;99.90;;;;;;4860568;29;20043;-25
2022/08/26 01:14:05;;;;;;;55.85;50.50;;;19.90;99.90;;;;;;4859069;29;20618;-25
2022/08/26 01:23:13;;;;;;;58.38;52.47;;;19.90;99.90;;;;;;4971843;28;20094;-25
2022/08/26 01:25:45;;;;;;;61.05;54.72;;;19.80;99.90;;;;;;4993536;28;20034;-25
2022/08/26 01:29:20;;;;;;;62.25;55.47;;;19.80;99.90;;;;;;4987788;28;20038;-26
2022/08/26 01:36:07;;;;;;;56.47;50.65;;;19.70;99.90;;;;;;4799126;29;20099;-31
2022/08/26 01:43:46;;;;;;;57.83;51.83;;;19.80;99.90;;;;;;4928005;29;20071;-31
2022/08/26 01:45:47;;;;;;;57.92;51.70;;;19.70;99.90;;;;;;4918721;28;20047;-29
2022/08/26 01:48:21;;;;;;;59.78;53.13;;;19.80;99.90;;;;;;4972654;28;20066;-29
2022/08/26 01:54:46;;;;;;;57.60;48.85;;;19.90;99.90;;;;;;4913642;28;20053;-31
2022/08/26 02:01:37;;;;;;;52.80;47.03;;;20.00;99.90;;;;;;4835287;29;20124;-28
2022/08/26 02:07:50;;;;;;;50.67;45.25;;;20.10;99.90;;;;;;4878012;29;20092;-28
2022/08/26 02:10:15;;;;;;;49.28;42.38;;;20.20;99.90;;;;;;4907492;28;20597;-28
2022/08/26 02:12:41;;;;;;;51.90;46.30;;;20.20;99.90;;;;;;4991748;28;20118;-32
2022/08/26 02:15:09;;;;;;;49.97;44.70;;;20.20;99.90;;;;;;4990845;28;20042;-29
2022/08/26 02:17:44;;;;;;;50.53;42.17;;;20.30;99.90;;;;;;4970993;28;20040;-27
2022/08/26 02:21:42;;;;;;;;;;;;;;;;;;;;;
2022/08/26 02:25:27;;;;;;;48.53;40.88;;;20.40;99.90;;;;;;4820142;29;20054;-27
2022/08/26 02:28:27;;;;;;;47.45;39.28;;;20.40;99.90;;;;;;4814905;29;20060;-29
2022/08/26 02:31:32;;;;;;;45.60;39.55;;;20.40;99.90;;;;;;4816593;29;20524;-31
2022/08/26 02:34:20;;;;;;;43.40;38.72;;;20.40;99.90;;;;;;4907476;28;20043;-32
2022/08/26 02:37:06;;;;;;;41.45;37.05;;;20.40;99.90;;;;;;4945490;28;20054;-28
2022/08/26 02:39:32;;;;;;;42.38;34.92;;;20.40;99.90;;;;;;4974502;28;20038;-31
2022/08/26 02:41:58;;;;;;;45.08;36.33;;;20.40;99.90;;;;;;4958788;28;20042;-29
2022/08/26 02:44:26;;;;;;;45.55;37.25;;;20.40;99.90;;;;;;4991992;28;20044;-27
2022/08/26 02:46:53;;;;;;;41.88;35.75;;;20.40;99.90;;;;;;4989520;28;20117;-30
2022/08/26 02:49:19;;;;;;;43.33;35.20;;;20.40;99.90;;;;;;4975170;28;20042;-31
2022/08/26 02:51:48;;;;;;;42.72;35.58;;;20.40;99.90;;;;;;4973294;28;20034;-31
2022/08/26 02:54:15;;;;;;;41.47;36.33;;;20.40;99.90;;;;;;4973134;28;20096;-30
2022/08/26 02:56:42;;;;;;;38.15;34.17;;;20.40;99.90;;;;;;4975060;28;20030;-30
2022/08/26 02:59:11;;;;;;;41.63;35.30;;;20.40;99.90;;;;;;4974961;28;20038;-29
2022/08/26 03:01:37;;;;;;;39.65;35.42;;;20.40;99.90;;;;;;4971682;28;20046;-32
2022/08/26 03:07:53;;;;;;;40.28;34.92;;;20.40;99.90;;;;;;5062704;22;20054;-25
2022/08/26 03:10:20;;;;;;;42.22;36.60;;;20.50;99.90;;;;;;4996278;28;20034;-25
2022/08/26 03:12:46;;;;;;;42.08;35.53;;;20.50;99.90;;;;;;4994368;28;20045;-25
2022/08/26 03:15:13;;;;;;;39.35;35.33;;;20.50;99.90;;;;;;4993491;28;20038;-26
2022/08/26 03:17:40;;;;;;;44.92;36.33;;;20.50;99.90;;;;;;4987004;28;20033;-25
2022/08/26 03:20:09;;;;;;;39.40;35.13;;;20.40;99.90;;;;;;5008482;28;20475;-25
2022/08/26 03:22:39;;;;;;;38.25;34.00;;;20.50;99.90;;;;;;4992872;28;20470;-25
2022/08/26 03:25:08;;;;;;;41.67;35.40;;;20.40;99.90;;;;;;4972598;28;20390;-26
2022/08/26 03:27:34;;;;;;;40.67;34.80;;;20.40;99.90;;;;;;4994033;28;20124;-25
2022/08/26 03:32:45;;;;;;;36.85;32.90;;;20.40;99.90;;;;;;5009690;28;20046;-25
2022/08/26 03:35:11;;;;;;;37.80;33.35;;;20.40;99.90;;;;;;4991280;28;20505;-26
2022/08/26 03:37:38;;;;;;;37.35;33.20;;;20.50;99.90;;;;;;4993803;28;20034;-25
2022/08/26 03:40:06;;;;;;;35.20;31.58;;;20.50;99.90;;;;;;4994460;28;20482;-25
2022/08/26 03:42:35;;;;;;;36.70;32.45;;;20.50;99.90;;;;;;4993875;28;20042;-25
2022/08/26 03:45:01;;;;;;;40.22;32.00;;;20.50;99.90;;;;;;4979125;28;20042;-25
2022/08/26 03:47:27;;;;;;;35.90;31.05;;;20.50;99.90;;;;;;4976373;28;20503;-26
2022/08/26 03:49:53;;;;;;;36.85;31.15;;;20.50;99.90;;;;;;5009316;28;20034;-25
2022/08/26 03:52:18;;;;;;;35.38;31.58;;;20.50;99.90;;;;;;4973496;28;20380;-25
2022/08/26 03:54:44;;;;;;;37.00;32.03;;;20.50;99.90;;;;;;5006455;28;20475;-25
2022/08/26 03:57:10;;;;;;;34.42;29.38;;;20.50;99.90;;;;;;4993650;28;20121;-26
2022/08/26 03:59:36;;;;;;;35.03;29.40;;;20.50;99.90;;;;;;4993633;28;20037;-26
2022/08/26 04:02:02;;;;;;;31.10;27.77;;;20.50;99.90;;;;;;4993119;28;20044;-26
2022/08/26 04:04:28;;;;;;;34.95;28.65;;;20.50;99.90;;;;;;4994205;28;20038;-26
2022/08/26 04:06:58;;;;;;;37.20;28.98;;;20.50;99.90;;;;;;5000496;28;20057;-25
2022/08/26 04:09:26;;;;;;;35.67;28.33;;;20.40;99.90;;;;;;4983833;28;20034;-25
2022/08/26 04:11:53;;;;;;;27.88;25.02;;;20.50;99.90;;;;;;4982138;28;20501;-25
2022/08/26 04:14:22;;;;;;;33.42;29.13;;;20.40;99.90;;;;;;4978621;28;20469;-25
2022/08/26 04:16:49;;;;;;;34.00;29.60;;;20.40;99.90;;;;;;4976602;28;20038;-26
2022/08/26 04:19:17;;;;;;;34.28;27.33;;;20.40;99.90;;;;;;4993258;28;20041;-25
2022/08/26 04:21:44;;;;;;;31.85;27.95;;;20.40;99.90;;;;;;4992711;28;20067;-25
2022/08/26 04:24:12;;;;;;;37.67;30.67;;;20.40;99.90;;;;;;4991095;28;20042;-25
2022/08/26 04:26:38;;;;;;;30.05;26.45;;;20.40;99.90;;;;;;4977095;28;20046;-25
2022/08/26 04:29:06;;;;;;;33.72;29.23;;;20.40;99.90;;;;;;4976801;28;20037;-25
2022/08/26 04:31:34;;;;;;;34.90;28.77;;;20.40;99.90;;;;;;4995509;28;20038;-25
2022/08/26 04:34:00;;;;;;;34.28;28.08;;;20.50;99.90;;;;;;4987676;28;20539;-25
2022/08/26 04:36:27;;;;;;;29.83;26.67;;;20.50;99.90;;;;;;4991745;28;20034;-25
2022/08/26 04:38:53;;;;;;;31.65;27.95;;;20.50;99.90;;;;;;4991769;28;20191;-25
2022/08/26 04:41:19;;;;;;;32.40;27.73;;;20.50;99.90;;;;;;4995068;28;20113;-25
2022/08/26 04:43:46;;;;;;;33.45;28.17;;;20.50;99.90;;;;;;4981772;28;20038;-25
2022/08/26 04:46:14;;;;;;;32.78;27.20;;;20.50;99.90;;;;;;5014145;28;20034;-25
2022/08/26 04:48:40;;;;;;;30.63;26.52;;;20.50;99.90;;;;;;4996135;28;20386;-25
2022/08/26 04:51:07;;;;;;;35.50;25.27;;;20.50;99.90;;;;;;4993563;28;20034;-25
2022/08/26 04:53:33;;;;;;;30.90;23.48;;;20.50;99.90;;;;;;4998012;28;20386;-25
2022/08/26 04:56:01;;;;;;;32.17;25.58;;;20.60;99.90;;;;;;4972695;28;20034;-26
2022/08/26 04:58:30;;;;;;;32.35;24.38;;;20.60;99.90;;;;;;5012831;28;20528;-25
2022/08/26 05:00:57;;;;;;;49.38;25.55;;;20.60;99.90;;;;;;5013298;28;20478;-26
2022/08/26 05:03:26;;;;;;;30.40;25.88;;;20.60;99.90;;;;;;4996659;28;20048;-25
2022/08/26 05:05:52;;;;;;;25.98;22.98;;;20.60;99.90;;;;;;4994868;28;20041;-25
2022/08/26 05:08:21;;;;;;;33.22;24.20;;;20.70;99.90;;;;;;5013396;28;20387;-25
2022/08/26 05:10:53;;;;;;;30.33;24.33;;;20.70;99.90;;;;;;4993163;28;20042;-25
2022/08/26 05:13:21;;;;;;;27.88;24.98;;;20.70;99.90;;;;;;4993751;28;20034;-25
2022/08/26 05:15:48;;;;;;;30.38;25.60;;;20.70;99.90;;;;;;4994165;28;20065;-25
2022/08/26 05:18:15;;;;;;;28.52;23.13;;;20.70;99.90;;;;;;4979671;28;20041;-25
2022/08/26 05:20:47;;;;;;;29.75;25.60;;;20.80;99.90;;;;;;5013230;28;20037;-25
2022/08/26 05:23:15;;;;;;;29.40;22.98;;;20.80;99.90;;;;;;4994465;28;20045;-25
2022/08/26 05:25:43;;;;;;;35.38;24.25;;;20.80;99.90;;;;;;4998103;28;20523;-25
2022/08/26 05:28:11;;;;;;;30.45;23.85;;;20.80;99.90;;;;;;4995563;28;20041;-25
2022/08/26 05:30:38;;;;;;;25.08;21.88;;;20.80;99.90;;;;;;4990551;28;20042;-25
2022/08/26 05:33:05;;;;;;;29.25;23.15;;;20.80;99.90;;;;;;4996001;28;20038;-24
2022/08/26 05:35:33;;;;;;;27.17;22.52;;;20.80;99.90;;;;;;4996723;28;20038;-24
2022/08/26 05:38:05;;;;;;;28.92;22.65;;;20.80;99.90;;;;;;4990563;28;20113;-24
2022/08/26 05:40:34;;;;;;;26.85;21.02;;;20.80;99.90;;;;;;4990759;28;20035;-24
2022/08/26 05:43:01;;;;;;;23.75;20.77;;;20.90;99.90;;;;;;4995215;28;20037;-25
2022/08/26 05:45:27;;;;;;;26.00;21.17;;;20.90;99.90;;;;;;4992563;28;20029;-25
2022/08/26 05:47:53;;;;;;;23.90;21.38;;;20.90;99.90;;;;;;4993575;28;20049;-26
2022/08/26 05:50:20;;;;;;;26.48;21.23;;;20.90;99.90;;;;;;4992379;28;20044;-26
2022/08/26 05:52:50;;;;;;;22.95;20.63;;;21.00;99.90;;;;;;4991034;28;20479;-26
2022/08/26 05:55:17;;;;;;;25.98;20.85;;;21.10;99.90;;;;;;4993495;28;20116;-26
2022/08/26 05:57:43;;;;;;;27.48;20.25;;;21.10;99.90;;;;;;4993381;28;20038;-26
2022/08/26 06:00:11;;;;;;;28.60;19.48;;;21.20;99.90;;;;;;4994809;28;20395;-26
2022/08/26 06:02:38;;;;;;;23.15;20.65;;;21.20;99.90;;;;;;4994035;28;20030;-26
2022/08/26 06:05:05;;;;;;;23.67;18.92;;;21.20;99.90;;;;;;4994105;28;20046;-26
2022/08/26 06:10:17;;;;;;;22.17;19.08;;;21.30;99.90;;;;;;5012227;28;20049;-26
2022/08/26 06:12:45;;;;;;;22.40;18.33;;;21.40;99.90;;;;;;4991149;28;20045;-25
2022/08/26 06:15:12;;;;;;;20.90;18.38;;;21.40;99.90;;;;;;4993543;28;20115;-25
2022/08/26 06:17:38;;;;;;;22.88;17.55;;;21.40;99.90;;;;;;4994344;28;20030;-26
2022/08/26 06:20:04;;;;;;;21.25;16.65;;;21.50;99.90;;;;;;4979787;28;20045;-25
2022/08/26 06:27:59;;;;;;;20.95;16.83;;;21.70;99.90;;;;;;5007165;28;20534;-26
2022/08/26 06:30:25;;;;;;;25.08;15.98;;;21.70;99.90;;;;;;4976476;28;20042;-26
2022/08/26 06:32:51;;;;;;;19.80;15.32;;;21.80;99.90;;;;;;4994540;28;20065;-26
2022/08/26 06:35:17;;;;;;;20.45;14.77;;;21.80;99.90;;;;;;5009924;28;20065;-27
2022/08/26 06:37:46;;;;;;;15.70;13.82;;;21.80;99.90;;;;;;4993190;28;20041;-26
2022/08/26 06:40:12;;;;;;;15.80;13.50;;;21.80;99.90;;;;;;4993000;28;20117;-26
2022/08/26 06:42:38;;;;;;;17.42;12.90;;;21.80;99.90;;;;;;4989249;28;20566;-26
2022/08/26 06:45:05;;;;;;;15.50;12.30;;;21.80;99.90;;;;;;4994174;28;20037;-26
2022/08/26 06:47:31;;;;;;;15.23;11.75;;;21.80;99.90;;;;;;4993010;28;20117;-26
2022/08/26 06:49:57;;;;;;;15.23;11.77;;;21.90;99.90;;;;;;4990473;28;20040;-26
2022/08/26 06:52:23;;;;;;;16.88;11.40;;;21.90;99.90;;;;;;4991620;28;20042;-26
2022/08/26 06:54:49;;;;;;;13.57;10.63;;;22.00;99.90;;;;;;4975088;28;20439;-26
2022/08/26 06:57:16;;;;;;;16.52;10.90;;;22.00;99.90;;;;;;4990198;28;21131;-26
2022/08/26 06:59:42;;;;;;;18.10;11.85;;;22.10;99.90;;;;;;4960411;28;20066;-26
2022/08/26 07:02:08;;;;;;;14.80;11.68;;;22.20;99.90;;;;;;4994728;28;20073;-26
2022/08/26 07:04:34;;;;;;;19.02;12.60;;;22.20;99.90;;;;;;4991324;28;20034;-26
2022/08/26 07:07:00;;;;;;;17.40;12.30;;;22.20;99.90;;;;;;4992940;28;20038;-26
2022/08/26 07:09:29;;;;;;;16.38;11.60;;;22.20;99.90;;;;;;4990873;28;20509;-26
2022/08/26 07:11:55;;;;;;;18.83;11.60;;;22.20;99.90;;;;;;4992130;28;20037;-26
2022/08/26 07:14:21;;;;;;;16.88;11.20;;;22.20;99.90;;;;;;4990709;28;20061;-26
2022/08/26 07:16:49;;;;;;;15.52;11.07;;;22.20;99.90;;;;;;4991416;28;20391;-26
2022/08/26 07:19:16;;;;;;;18.02;12.73;;;22.20;99.90;;;;;;4992782;28;20073;-26
2022/08/26 07:21:43;;;;;;;20.83;12.02;;;22.20;99.90;;;;;;4976251;28;20046;-26
2022/08/26 07:24:10;;;;;;;18.63;11.65;;;22.20;99.90;;;;;;4977599;28;20034;-26
2022/08/26 07:26:38;;;;;;;19.52;11.15;;;22.20;99.90;;;;;;4982503;28;20514;-26
2022/08/26 07:29:05;;;;;;;15.60;10.60;;;22.30;99.90;;;;;;4989667;28;20030;-26
2022/08/26 07:31:34;;;;;;;20.45;11.50;;;22.30;99.90;;;;;;5007977;28;20391;-26
2022/08/26 07:34:00;;;;;;;17.13;10.50;;;22.30;99.90;;;;;;4992822;28;20144;-26
2022/08/26 07:36:27;;;;;;;16.23;9.25;;;22.30;99.90;;;;;;4991126;28;20041;-26
2022/08/26 07:38:54;;;;;;;21.42;10.00;;;22.40;99.90;;;;;;4995447;28;20081;-26
2022/08/26 07:41:22;;;;;;;15.57;9.23;;;22.40;99.90;;;;;;4991217;28;20045;-26
2022/08/26 07:43:49;;;;;;;13.52;8.63;;;22.40;99.90;;;;;;4992589;28;20033;-26
2022/08/26 07:46:18;;;;;;;13.98;7.80;;;22.50;99.90;;;;;;5011203;28;20034;-26
2022/08/26 07:48:49;;;;;;;16.48;8.30;;;22.60;99.90;;;;;;5000602;28;20523;-26
2022/08/26 07:51:16;;;;;;;12.45;7.68;;;22.70;99.90;;;;;;4993403;28;20048;-26
2022/08/26 07:53:44;;;;;;;17.35;8.32;;;22.70;99.90;;;;;;4994471;28;20234;-26
2022/08/26 07:56:10;;;;;;;14.95;7.85;;;22.80;99.90;;;;;;4995558;28;20502;-26
2022/08/26 07:58:37;;;;;;;12.85;7.40;;;22.80;99.90;;;;;;4994510;28;20498;-26
2022/08/26 08:01:04;;;;;;;13.20;7.63;;;22.80;99.90;;;;;;4993856;28;20117;-26
2022/08/26 08:03:30;;;;;;;12.82;7.45;;;22.80;99.90;;;;;;4993464;28;20042;-26
2022/08/26 08:05:56;;;;;;;11.27;7.28;;;22.80;99.90;;;;;;4993860;28;20503;-26
2022/08/26 08:08:22;;;;;;;11.23;7.05;;;22.70;99.90;;;;;;5010094;28;20095;-26
2022/08/26 08:10:48;;;;;;;10.70;7.47;;;22.70;99.90;;;;;;4977080;28;20053;-26
2022/08/26 08:13:13;;;;;;;13.98;6.40;;;22.70;99.90;;;;;;5003977;28;20372;-26
2022/08/26 08:15:39;;;;;;;12.40;6.05;;;22.60;99.90;;;;;;4980533;28;20067;-26
2022/08/26 08:18:06;;;;;;;9.93;6.47;;;22.70;99.90;;;;;;4995365;28;20038;-26
2022/08/26 08:20:33;;;;;;;11.02;6.32;;;22.70;99.90;;;;;;5014499;28;20045;-26
2022/08/26 08:23:02;;;;;;;13.98;6.50;;;22.60;99.90;;;;;;4992936;28;20044;-26
2022/08/26 08:25:30;;;;;;;12.98;6.55;;;22.70;99.90;;;;;;4988848;28;20038;-26
2022/08/26 08:27:56;;;;;;;10.02;5.90;;;22.80;99.90;;;;;;4993417;28;20541;-26
2022/08/26 08:30:23;;;;;;;11.63;5.90;;;22.80;99.90;;;;;;4993797;28;20121;-26
2022/08/26 08:32:50;;;;;;;10.13;5.80;;;22.80;99.90;;;;;;4980503;28;20037;-27
2022/08/26 08:35:19;;;;;;;14.18;6.40;;;22.90;99.90;;;;;;4993856;28;20033;-26
2022/08/26 08:37:46;;;;;;;12.15;5.85;;;23.00;99.90;;;;;;4996535;28;20279;-26
2022/08/26 08:40:16;;;;;;;11.77;6.50;;;23.00;99.90;;;;;;4995409;28;20438;-26
2022/08/26 08:43:12;;;;;;;11.98;6.30;;;23.00;99.90;;;;;;4994605;28;20499;-26
2022/08/26 08:45:43;;;;;;;12.52;6.63;;;23.00;99.90;;;;;;4992801;28;20052;-26
2022/08/26 08:48:26;;;;;;;10.70;5.75;;;22.90;99.90;;;;;;4996703;28;20095;-26
2022/08/26 08:54:47;;;;;;;10.93;6.10;;;22.80;99.90;;;;;;5016987;28;20056;-26
2022/08/26 08:58:27;;;;;;;12.55;6.13;;;22.80;99.90;;;;;;4995447;28;20502;-26
2022/08/26 09:02:01;;;;;;;9.75;5.65;;;22.80;99.90;;;;;;4973728;28;20041;-26
2022/08/26 09:05:06;;;;;;;9.40;4.80;;;22.80;99.90;;;;;;5006783;28;20045;-29
2022/08/26 09:07:56;;;;;;;12.23;5.50;;;22.80;99.90;;;;;;5003848;28;20459;-29
2022/08/26 09:10:35;;;;;;;14.52;4.43;;;22.90;99.90;;;;;;4998703;28;20099;-29
2022/08/26 09:13:57;;;;;;;9.60;5.15;;;23.00;99.90;;;;;;5023991;22;20046;-84
2022/08/26 09:18:08;;;;;;;8.93;4.00;;;23.00;99.90;;;;;;4955442;28;20548;-85
2022/08/26 09:21:45;;;;;;;;;;;;;;;;;;;;;
2022/08/26 09:25:06;;;;;;;7.35;3.40;;;23.00;99.90;;;;;;4906464;29;20047;-85
2022/08/26 09:27:48;;;;;;;12.35;3.40;;;23.00;99.90;;;;;;4849885;29;20054;-84
2022/08/26 09:30:39;;;;;;;9.93;3.13;;;22.90;99.90;;;;;;4882132;29;20049;-84
2022/08/26 09:33:26;;;;;;;9.65;2.67;;;23.00;99.90;;;;;;4888386;29;20554;-85
2022/08/26 09:36:34;;;;;;;8.70;3.00;;;23.00;99.90;;;;;;4900459;29;20039;-85
2022/08/26 09:39:35;;;;;;;4.65;2.28;;;23.10;99.90;;;;;;4899782;29;20048;-84
2022/08/26 09:42:38;;;;;;;8.77;2.70;;;23.10;99.90;;;;;;4916015;29;20063;-84
2022/08/26 09:45:40;;;;;;;5.75;2.47;;;23.00;99.90;;;;;;4891736;29;20057;-84
2022/08/26 09:48:39;;;;;;;8.40;2.40;;;22.80;99.90;;;;;;4862105;29;20051;-84
2022/08/26 09:51:31;;;;;;;6.63;2.40;;;22.80;99.90;;;;;;4932625;28;20047;-85
2022/08/26 09:54:26;;;;;;;7.55;2.20;;;22.90;99.90;;;;;;4907224;29;20138;-85
2022/08/26 09:57:29;;;;;;;7.57;2.20;;;22.90;99.90;;;;;;4937410;28;20035;-85
2022/08/26 10:00:23;;;;;;;7.70;2.33;;;23.00;99.90;;;;;;4954217;28;20050;-85
2022/08/26 10:03:13;;;;;;;7.57;2.23;;;23.00;99.90;;;;;;4943220;29;20043;-84
2022/08/26 10:06:37;;;;;;;6.90;1.98;;;23.10;99.90;;;;;;4955147;28;20049;-84
2022/08/26 10:09:37;;;;;;;4.63;2.10;;;22.90;99.90;;;;;;4960513;28;20061;-84
2022/08/26 10:12:43;;;;;;;4.68;2.05;;;22.80;99.90;;;;;;4976079;28;20077;-85
2022/08/26 10:15:26;;;;;;;5.32;1.90;;;22.70;99.90;;;;;;4990843;28;20046;-85
2022/08/26 10:18:50;;;;;;;6.35;1.92;;;22.70;99.90;;;;;;4991977;28;20078;-85
2022/08/26 11:03:56;;;;;;;4.93;2.20;;;23.40;99.90;;;;;;4894985;29;20084;-89
2022/08/26 11:22:24;;;;;;;10.40;2.55;;;23.10;99.90;;;;;;4877027;29;20089;-91
2022/08/26 11:29:09;;;;;;;7.32;2.75;;;23.00;99.90;;;;;;4864307;29;20360;-88
2022/08/26 11:31:51;;;;;;;5.75;2.53;;;23.20;99.90;;;;;;4921487;28;20050;-90
2022/08/26 11:34:52;;;;;;;5.75;2.45;;;23.60;99.90;;;;;;4992585;28;20053;-88
2022/08/26 11:37:28;;;;;;;6.45;2.42;;;23.90;99.90;;;;;;4975725;28;20061;-89
2022/08/26 11:39:54;;;;;;;4.20;2.50;;;24.00;99.90;;;;;;4988039;28;20030;-88
2022/08/26 11:42:33;;;;;;;6.47;2.25;;;24.00;99.90;;;;;;4975800;28;20057;-88
2022/08/26 11:45:44;;;;;;;9.60;2.88;;;24.00;99.90;;;;;;4974092;28;20133;-88
2022/08/26 11:48:41;;;;;;;7.15;2.80;;;23.90;99.90;;;;;;4976657;28;20404;-88
2022/08/26 11:51:12;;;;;;;7.97;2.80;;;23.70;99.90;;;;;;4987661;28;20486;-89
2022/08/26 11:53:41;;;;;;;6.95;2.85;;;23.60;99.90;;;;;;4992013;28;20042;-88
2022/08/26 11:56:11;;;;;;;6.15;2.38;;;23.50;99.90;;;;;;4975170;28;20038;-88
2022/08/26 11:58:51;;;;;;;4.68;2.38;;;23.30;99.90;;;;;;4984113;28;20038;-89
2022/08/26 12:01:34;;;;;;;5.22;2.03;;;23.30;99.90;;;;;;5008015;28;20046;-89
2022/08/26 12:04:01;;;;;;;;;;;23.00;99.90;;;;;;4985882;28;20034;-88
2022/08/26 12:06:30;;;;;;;6.85;2.38;;;22.90;99.90;;;;;;5005650;28;20388;-89
2022/08/26 12:08:59;;;;;;;10.13;2.40;;;22.70;99.90;;;;;;4988558;28;20042;-87
2022/08/26 12:11:30;;;;;;;6.32;2.40;;;22.60;99.90;;;;;;4971956;28;20258;-90
2022/08/26 12:14:05;;;;;;;6.55;2.38;;;22.50;99.90;;;;;;4999479;28;20034;-89
2022/08/26 12:16:37;;;;;;;6.03;2.08;;;22.50;99.90;;;;;;4991779;28;20189;-89
2022/08/26 12:19:32;;;;;;;6.50;1.97;;;22.50;99.90;;;;;;4974473;28;20117;-91
2022/08/26 12:22:18;;;;;;;7.97;1.95;;;22.60;99.90;;;;;;4989755;28;20035;-88
2022/08/26 12:24:48;;;;;;;7.43;2.00;;;22.70;99.90;;;;;;4985906;28;20046;-88
2022/08/26 12:27:48;;;;;;;5.45;2.10;;;22.70;99.90;;;;;;4997644;28;20038;-86
2022/08/26 12:30:52;;;;;;;5.85;2.60;;;22.70;99.90;;;;;;5003997;28;20042;-86
2022/08/26 12:33:28;;;;;;;;;;;22.60;99.90;;;;;;5008717;28;20046;-86
2022/08/26 12:35:54;;;;;;;7.60;2.42;;;22.50;99.90;;;;;;5007597;28;19973;-84
2022/08/26 12:38:20;;;;;;;6.30;2.33;;;22.50;99.90;;;;;;5005016;28;20034;-83
2022/08/26 12:40:48;;;;;;;6.10;2.10;;;22.50;99.90;;;;;;5004801;28;20065;-82
2022/08/26 12:43:44;;;;;;;8.65;2.53;;;22.40;99.90;;;;;;5004345;28;20548;-82
2022/08/26 12:46:15;;;;;;;9.50;2.42;;;22.40;99.90;;;;;;5015161;28;20022;-82
2022/08/26 12:48:43;;;;;;;8.05;2.45;;;22.40;99.90;;;;;;4997274;28;20053;-82
2022/08/26 12:51:26;;;;;;;10.20;2.95;;;22.40;99.90;;;;;;4977075;28;20039;-83
2022/08/26 12:53:56;;;;;;;3.80;2.03;;;22.50;99.90;;;;;;4973316;28;20050;-83
2022/08/26 12:56:28;;;;;;;6.95;2.42;;;22.60;99.90;;;;;;4993622;28;20459;-83
2022/08/26 12:59:24;;;;;;;7.43;2.40;;;22.60;99.90;;;;;;4993260;28;20042;-83
2022/08/26 13:01:52;;;;;;;4.32;2.00;;;22.70;99.90;;;;;;4993852;28;20505;-83
2022/08/26 13:04:46;;;;;;;6.03;2.28;;;22.80;99.90;;;;;;4997558;28;20812;-83
2022/08/26 13:07:25;;;;;;;5.88;2.22;;;22.90;99.90;;;;;;4999933;28;20034;-83
2022/08/26 13:09:53;;;;;;;6.68;2.33;;;23.00;99.90;;;;;;5000903;28;20042;-83
2022/08/26 13:12:41;;;;;;;6.18;2.65;;;23.00;99.90;;;;;;4998463;28;20041;-83
2022/08/26 13:15:10;;;;;;;6.72;2.40;;;23.20;99.90;;;;;;4986134;28;20498;-84
2022/08/26 13:17:44;;;;;;;6.10;2.60;;;23.20;99.90;;;;;;4999722;28;20034;-86
2022/08/26 13:20:49;;;;;;;5.30;2.20;;;23.30;99.90;;;;;;4985000;28;20429;-84
2022/08/26 13:23:59;;;;;;;7.32;2.17;;;23.50;99.90;;;;;;4980020;28;20038;-83
2022/08/26 13:26:25;;;;;;;4.05;2.30;;;23.80;99.90;;;;;;4978335;28;20061;-84
2022/08/26 13:28:58;;;;;;;7.03;2.72;;;24.30;99.90;;;;;;4995519;28;20074;-85
2022/08/26 13:32:10;;;;;;;4.50;2.40;;;24.20;99.90;;;;;;4979922;28;20065;-84
2022/08/26 13:34:40;;;;;;;6.95;2.13;;;24.00;99.90;;;;;;4920189;28;20529;-84
2022/08/26 13:37:32;;;;;;;7.25;2.13;;;23.70;99.90;;;;;;4981861;28;20097;-85
2022/08/26 13:40:58;;;;;;;3.97;1.90;;;23.50;99.90;;;;;;4978392;28;20042;-84
2022/08/26 13:51:08;;;;;;;6.88;2.00;;;22.90;99.90;;;;;;4863542;29;20049;-84
2022/08/26 13:53:37;;;;;;;4.22;2.55;;;22.60;99.90;;;;;;4910352;29;20111;-84
2022/08/26 13:56:06;;;;;;;4.53;2.00;;;22.50;99.90;;;;;;4917764;29;20044;-84
2022/08/26 13:58:35;;;;;;;7.07;3.10;;;22.40;99.90;;;;;;4956742;28;20521;-84
2022/08/26 14:01:01;;;;;;;5.82;2.05;;;22.40;99.90;;;;;;4993732;28;20100;-84
2022/08/26 14:07:17;;;;;;;3.88;1.70;;;22.90;99.90;;;;;;4991938;28;20073;-84
2022/08/26 14:09:55;;;;;;;3.80;1.52;;;23.20;99.90;;;;;;4990877;28;20050;-85
2022/08/26 14:12:24;;;;;;;6.00;1.95;;;23.30;99.90;;;;;;4977562;28;20076;-84
2022/08/26 14:14:50;;;;;;;2.50;1.50;;;23.70;99.90;;;;;;4993640;28;20045;-84
2022/08/26 14:17:21;;;;;;;5.47;1.77;;;23.90;99.90;;;;;;4994001;28;20035;-84
2022/08/26 14:19:52;;;;;;;5.03;2.00;;;24.10;99.90;;;;;;4993766;28;20124;-84
2022/08/26 14:22:22;;;;;;;7.25;2.00;;;24.20;99.90;;;;;;4976486;28;20041;-84
2022/08/26 14:24:55;;;;;;;3.95;1.80;;;24.20;99.90;;;;;;4978368;28;20042;-84
2022/08/26 14:27:21;;;;;;;6.18;2.08;;;24.20;99.90;;;;;;4992565;28;20046;-84
2022/08/26 14:29:49;;;;;;;5.72;2.20;;;24.10;99.90;;;;;;4975864;28;20046;-84
2022/08/26 14:32:27;;;;;;;7.90;2.10;;;24.00;99.90;;;;;;4992315;28;20034;-85
2022/08/26 14:34:56;;;;;;;8.57;2.00;;;23.80;99.90;;;;;;4968380;28;20035;-84
2022/08/26 14:37:23;;;;;;;5.07;1.95;;;23.60;99.90;;;;;;4991468;28;20050;-85
2022/08/26 14:39:52;;;;;;;4.68;1.98;;;23.40;99.90;;;;;;4993233;28;20038;-84
2022/08/26 14:42:26;;;;;;;6.88;2.20;;;23.30;99.90;;;;;;4992546;28;20045;-84
2022/08/26 14:44:55;;;;;;;7.75;2.55;;;23.20;99.90;;;;;;4992984;28;20042;-84
2022/08/26 14:47:21;;;;;;;5.97;2.30;;;22.90;99.90;;;;;;4992841;28;20538;-85
2022/08/26 14:49:51;;;;;;;7.70;1.95;;;22.70;99.90;;;;;;4992315;28;20098;-86
2022/08/26 14:52:17;;;;;;;4.90;2.30;;;22.60;99.90;;;;;;4975388;28;20071;-84
2022/08/26 14:54:46;;;;;;;4.50;2.25;;;22.40;99.90;;;;;;4988132;28;20171;-85
2022/08/26 14:57:24;;;;;;;5.35;2.00;;;22.30;99.90;;;;;;5008012;28;20038;-86
2022/08/26 15:00:30;;;;;;;6.38;2.20;;;22.30;99.90;;;;;;4975814;28;20042;-85
2022/08/26 15:04:00;;;;;;;4.75;2.17;;;22.30;99.90;;;;;;4981278;28;20066;-87
2022/08/26 15:07:23;;;;;;;5.78;2.50;;;22.40;99.90;;;;;;4944641;28;20067;-83
2022/08/26 15:10:16;;;;;;;5.55;2.50;;;22.40;99.90;;;;;;4959441;28;20039;-85
2022/08/26 15:12:47;;;;;;;4.60;2.08;;;22.80;99.90;;;;;;4925022;28;20074;-84
2022/08/26 15:15:17;;;;;;;7.43;2.20;;;23.00;99.90;;;;;;4911956;29;20042;-85
2022/08/26 15:17:45;;;;;;;3.97;2.15;;;23.20;99.90;;;;;;4924050;28;20125;-84
2022/08/26 15:20:51;;;;;;;5.97;2.53;;;23.30;99.90;;;;;;4944029;28;20804;-84
2022/08/26 15:24:36;;;;;;;5.55;2.30;;;23.20;99.90;;;;;;4958894;28;20069;-84
2022/08/26 15:27:05;;;;;;;4.60;1.75;;;23.00;99.90;;;;;;4951161;28;20085;-84
2022/08/26 15:29:48;;;;;;;4.32;2.22;;;22.80;99.90;;;;;;4991849;28;20182;-84
2022/08/26 15:32:15;;;;;;;4.43;1.80;;;22.60;99.90;;;;;;4990542;28;20030;-84
2022/08/26 15:34:41;;;;;;;3.67;1.90;;;22.40;99.90;;;;;;4992803;28;20449;-85
2022/08/26 15:37:22;;;;;;;4.60;2.10;;;22.30;99.90;;;;;;4974852;28;20042;-84
2022/08/26 15:39:48;;;;;;;4.63;2.00;;;22.20;99.90;;;;;;4989078;28;20050;-85